San Diego, California
Traffic Map
Current Weather Conditions
San Diego, California
Few Clouds
Few Clouds
73°
Feels Like: 73°
Wind Chill: 73° Ceiling: Unl
Heat Index: 73° Visibility: 9mi
Dew Point: 64° Wind: 12mph
Humidity: 73% Direction: 180° (S)
Pressure: 29.83in Gusts: 0mph
Raw Report DataKSAN 302251Z 18010KT 9SM FEW009 FEW100 23/18 A2983 RMK AO2 SLP102 T02280178
Traffic Incident Summary
Active as of:
Severity:
Category:
InformationThere was an issue retrieving the traffic information for this location. Please try a different location or try again shortly.
Advertisements
Track Severe Weather on mobile